createdAt,value
2022-08-05T00:00:23.806Z,97446.59
2022-08-05T00:02:58.781Z,97454.56
2022-08-05T00:06:05.094Z,97447.09
2022-08-05T00:08:34.865Z,97446.19
2022-08-05T00:11:23.998Z,97444.56
2022-08-05T00:14:00.816Z,97430.91
2022-08-05T00:16:35.391Z,97430.06
2022-08-05T00:19:09.418Z,97436.53
2022-08-05T00:21:39.572Z,97435.97
2022-08-05T00:24:18.917Z,97434.50
2022-08-05T00:26:54.954Z,97438.69
2022-08-05T00:29:26.124Z,97434.50
2022-08-05T00:32:12.790Z,97426.91
2022-08-05T00:35:04.856Z,97427.34
2022-08-05T00:37:53.272Z,97422.13
2022-08-05T00:40:29.249Z,97423.78
2022-08-05T00:43:02.189Z,97426.91
2022-08-05T00:45:43.045Z,97428.84
2022-08-05T00:48:15.744Z,97431.88
2022-08-05T00:50:51.321Z,97416.44
2022-08-05T00:54:00.618Z,97423.19
2022-08-05T00:56:17.327Z,97422.59
2022-08-05T00:58:52.873Z,97424.41
2022-08-05T01:01:42.185Z,97421.13
2022-08-05T01:04:15.819Z,97412.88
2022-08-05T01:06:51.791Z,97423.94
2022-08-05T01:09:22.788Z,97415.56
2022-08-05T01:11:55.691Z,97416.63
2022-08-05T01:14:34.413Z,97413.94
2022-08-05T01:17:09.765Z,97412.84
2022-08-05T01:20:00.770Z,97415.56
2022-08-05T01:22:54.176Z,97408.94
2022-08-05T01:25:53.444Z,97410.47
2022-08-05T01:28:36.358Z,97406.84
2022-08-05T01:31:14.126Z,97404.78
2022-08-05T01:33:53.707Z,97403.72
2022-08-05T01:36:29.690Z,97407.91
2022-08-05T01:39:01.158Z,97402.69
2022-08-05T01:41:37.723Z,97402.69
2022-08-05T01:44:12.688Z,97405.34
2022-08-05T01:46:47.777Z,97400.53
2022-08-05T01:49:25.023Z,97385.75
2022-08-05T01:52:01.966Z,97391.56
2022-08-05T01:54:52.912Z,97394.88
2022-08-05T01:58:29.631Z,97380.47
2022-08-05T02:00:30.595Z,97377.47
2022-08-05T02:03:07.291Z,97380.47
2022-08-05T02:05:59.832Z,97374.50
2022-08-05T02:08:32.078Z,97376.88
2022-08-05T02:11:11.783Z,97381.56
2022-08-05T02:13:53.581Z,97386.91
2022-08-05T02:16:32.889Z,97386.47
2022-08-05T02:19:09.501Z,97393.06
2022-08-05T02:21:46.878Z,97394.81
2022-08-05T02:24:25.164Z,97390.75
2022-08-05T02:27:00.050Z,97391.22
2022-08-05T02:29:59.452Z,97399.25
2022-08-05T02:32:36.119Z,97407.03
2022-08-05T02:35:22.101Z,97393.41
2022-08-05T02:38:02.308Z,97396.06
2022-08-05T02:40:34.624Z,97407.88
2022-08-05T02:43:07.269Z,97405.97
2022-08-05T02:45:52.951Z,97405.41
2022-08-05T02:48:29.934Z,97403.06
2022-08-05T02:51:03.374Z,97401.91
2022-08-05T02:53:35.969Z,97393.41
2022-08-05T02:56:16.130Z,97401.97
2022-08-05T02:58:51.615Z,97402.88
2022-08-05T03:01:27.310Z,97409.31
2022-08-05T03:04:14.396Z,97402.72
2022-08-05T03:06:55.096Z,97408.84
2022-08-05T03:09:37.648Z,97393.22
2022-08-05T03:12:14.647Z,97396.81
2022-08-05T03:14:48.188Z,97399.47
2022-08-05T03:17:20.224Z,97395.56
2022-08-05T03:19:54.843Z,97393.00
2022-08-05T03:22:32.309Z,97395.50
2022-08-05T03:25:32.036Z,97395.47
2022-08-05T03:28:00.048Z,97401.72
2022-08-05T03:30:33.707Z,97402.19
2022-08-05T03:33:07.463Z,97409.63
2022-08-05T03:35:41.948Z,97406.69
2022-08-05T03:38:14.841Z,97409.97
2022-08-05T03:40:47.507Z,97415.47
2022-08-05T03:44:09.637Z,97412.16
2022-08-05T03:46:10.912Z,97404.22
2022-08-05T03:48:43.111Z,97414.94
2022-08-05T03:52:49.029Z,97405.28
2022-08-05T03:55:49.953Z,97410.31
2022-08-05T03:57:17.957Z,97407.72
2022-08-05T03:59:56.831Z,97396.03
2022-08-05T04:02:38.647Z,97396.47
2022-08-05T04:05:16.201Z,97400.59
2022-08-05T04:07:58.080Z,97392.59
2022-08-05T04:10:37.632Z,97399.81
2022-08-05T04:13:10.161Z,97401.88
2022-08-05T04:16:02.710Z,97394.88
2022-08-05T04:18:34.247Z,97401.44
2022-08-05T04:21:05.897Z,97391.44
2022-08-05T04:24:05.546Z,97394.19
2022-08-05T04:26:32.480Z,97385.94
2022-08-05T04:29:07.396Z,97384.25
2022-08-05T04:31:38.722Z,97394.94
2022-08-05T04:34:19.956Z,97391.13
2022-08-05T04:37:00.038Z,97400.13
2022-08-05T04:39:35.391Z,97391.38
2022-08-05T04:42:06.772Z,97408.69
2022-08-05T04:44:37.046Z,97410.47
2022-08-05T04:47:09.829Z,97412.72
2022-08-05T04:50:02.816Z,97412.72
2022-08-05T04:52:33.307Z,97420.53
2022-08-05T04:55:14.525Z,97424.56
2022-08-05T04:57:51.618Z,97426.81
2022-08-05T05:00:24.536Z,97418.63
2022-08-05T05:02:54.913Z,97419.00
2022-08-05T05:05:28.933Z,97417.56
2022-08-05T05:08:03.462Z,97413.16
2022-08-05T05:10:55.973Z,97414.13
2022-08-05T05:13:26.859Z,97412.59
2022-08-05T05:16:05.976Z,97410.25
2022-08-05T05:18:37.333Z,97416.13
2022-08-05T05:21:07.961Z,97420.44
2022-08-05T05:24:03.792Z,97435.00
2022-08-05T05:26:33.116Z,97456.28
2022-08-05T05:29:10.161Z,97510.72
2022-08-05T05:31:46.250Z,97493.47
2022-08-05T05:34:21.215Z,97474.34
2022-08-05T05:36:57.049Z,97495.22
2022-08-05T05:39:34.454Z,97514.78
2022-08-05T05:42:08.216Z,97513.44
2022-08-05T05:44:43.123Z,97516.97
2022-08-05T05:47:22.103Z,97519.66
2022-08-05T05:50:01.491Z,97541.59
2022-08-05T05:52:38.015Z,97556.84
2022-08-05T05:55:13.894Z,97556.16
2022-08-05T05:57:52.579Z,97553.09
2022-08-05T06:00:27.726Z,97576.06
2022-08-05T06:03:39.938Z,97552.31
2022-08-05T06:05:55.733Z,97583.31
2022-08-05T06:08:31.511Z,97567.78
2022-08-05T06:11:02.363Z,97579.09
2022-08-05T06:13:40.757Z,97578.56
2022-08-05T06:16:30.124Z,97572.84
2022-08-05T06:19:05.818Z,97591.41
2022-08-05T06:21:42.916Z,97602.00
2022-08-05T06:24:25.676Z,97602.53
2022-08-05T06:26:56.124Z,97594.19
2022-08-05T06:29:49.022Z,97602.53
2022-08-05T06:32:24.959Z,97591.88
2022-08-05T06:35:00.262Z,97596.81
2022-08-05T06:37:57.020Z,97586.09
2022-08-05T06:40:27.960Z,97589.69
2022-08-05T06:42:58.452Z,97595.16
2022-08-05T06:45:44.705Z,97591.75
2022-08-05T06:48:50.266Z,97590.34
2022-08-05T06:51:25.241Z,97579.78
2022-08-05T06:54:00.487Z,97582.06
2022-08-05T06:56:34.354Z,97592.34
2022-08-05T06:59:09.490Z,97587.47
2022-08-05T07:01:42.709Z,97588.22
2022-08-05T07:04:16.320Z,97594.31
2022-08-05T07:06:50.379Z,97587.09
2022-08-05T07:09:20.720Z,97607.22
2022-08-05T07:11:55.965Z,97607.09
2022-08-05T07:14:43.182Z,97621.94
2022-08-05T07:17:59.180Z,97631.69
2022-08-05T07:20:32.535Z,97635.91
2022-08-05T07:22:58.727Z,97625.41
2022-08-05T07:25:54.955Z,97620.28
2022-08-05T07:28:19.417Z,97650.00
2022-08-05T07:30:54.731Z,97643.22
2022-08-05T07:33:35.098Z,97657.19
2022-08-05T07:36:19.876Z,97657.56
2022-08-05T07:38:54.976Z,97652.22
2022-08-05T07:42:14.039Z,97655.69
2022-08-05T07:44:18.963Z,97662.41
2022-08-05T07:46:50.567Z,97674.56
2022-08-05T07:49:23.483Z,97669.19
2022-08-05T07:51:55.064Z,97655.84
2022-08-05T07:54:31.699Z,97625.84
2022-08-05T07:57:13.727Z,97643.13
2022-08-05T07:59:55.796Z,97652.25
2022-08-05T08:02:31.191Z,97654.34
2022-08-05T08:05:23.362Z,97660.31
2022-08-05T08:08:00.230Z,97645.94
2022-08-05T08:10:31.532Z,97657.34
2022-08-05T08:13:03.052Z,97665.75
2022-08-05T08:16:33.421Z,97658.94
2022-08-05T08:18:23.294Z,97662.25
2022-08-05T08:21:03.408Z,97664.09
2022-08-05T08:24:01.767Z,97667.44
2022-08-05T08:26:27.072Z,97671.78
2022-08-05T08:29:29.391Z,97684.31
2022-08-05T08:31:53.047Z,97664.72
2022-08-05T08:34:30.637Z,97671.19
2022-08-05T08:37:06.325Z,97676.72
2022-08-05T08:39:37.680Z,97679.03
2022-08-05T08:42:27.553Z,97678.06
2022-08-05T08:45:19.799Z,97673.91
2022-08-05T08:48:07.338Z,97687.75
2022-08-05T08:51:03.410Z,97679.44
2022-08-05T08:53:45.098Z,97680.50
2022-08-05T08:56:15.724Z,97681.16
2022-08-05T08:58:47.993Z,97676.06
2022-08-05T09:01:20.310Z,97681.03
2022-08-05T09:03:57.292Z,97683.78
2022-08-05T09:06:30.930Z,97676.09
2022-08-05T09:09:05.040Z,97667.72
2022-08-05T09:11:51.346Z,97669.13
2022-08-05T09:14:57.544Z,97667.31
2022-08-05T09:17:40.737Z,97663.34
2022-08-05T09:20:09.488Z,97658.56
2022-08-05T09:23:09.326Z,97650.13
2022-08-05T09:26:02.570Z,97655.34
2022-08-05T09:28:35.795Z,97658.22
2022-08-05T09:31:23.417Z,97648.06
2022-08-05T09:34:01.890Z,97648.09
2022-08-05T09:36:54.655Z,97649.16
2022-08-05T09:39:41.268Z,97652.00
2022-08-05T09:42:24.158Z,97650.41
2022-08-05T09:45:17.521Z,97648.41
2022-08-05T09:47:56.255Z,97648.53
2022-08-05T09:50:44.045Z,97630.97
2022-08-05T09:53:26.060Z,97631.47
2022-08-05T09:56:13.324Z,97632.34
2022-08-05T09:59:04.028Z,97644.28
2022-08-05T10:01:36.944Z,97641.19
2022-08-05T10:04:13.740Z,97639.41
2022-08-05T10:06:58.801Z,97641.22
2022-08-05T10:09:30.709Z,97628.16
2022-08-05T10:12:30.656Z,97619.41
2022-08-05T10:15:26.429Z,97625.16
2022-08-05T10:18:19.914Z,97618.91
2022-08-05T10:20:54.308Z,97625.44
2022-08-05T10:23:55.517Z,97615.53
2022-08-05T10:26:17.457Z,97620.38
2022-08-05T10:28:50.902Z,97623.25
2022-08-05T10:32:54.288Z,97628.16
2022-08-05T10:34:19.675Z,97635.72
2022-08-05T10:36:56.598Z,97622.38
2022-08-05T10:40:03.063Z,97610.47
2022-08-05T10:42:33.825Z,97610.84
2022-08-05T10:45:21.446Z,97620.41
2022-08-05T10:48:29.653Z,97618.84
2022-08-05T10:51:03.393Z,97613.44
2022-08-05T10:53:42.565Z,97617.31
2022-08-05T10:56:25.300Z,97613.41
2022-08-05T10:59:12.419Z,97605.75
2022-08-05T11:02:14.253Z,97605.69
2022-08-05T11:05:09.440Z,97609.34
2022-08-05T11:08:01.475Z,97599.03
2022-08-05T11:10:50.190Z,97591.56
2022-08-05T11:13:54.995Z,97588.59
2022-08-05T11:16:33.700Z,97585.06
2022-08-05T11:20:11.121Z,97586.53
2022-08-05T11:22:49.962Z,97602.16
2022-08-05T11:26:05.698Z,97601.47
2022-08-05T11:28:50.739Z,97597.63
2022-08-05T11:31:57.115Z,97596.53
2022-08-05T11:34:51.903Z,97599.25
2022-08-05T11:38:30.793Z,97600.94
2022-08-05T11:41:35.061Z,97598.03
2022-08-05T11:44:06.504Z,97600.78
2022-08-05T11:47:10.314Z,97594.38
2022-08-05T11:49:34.317Z,97589.56
2022-08-05T11:52:11.562Z,97581.34
2022-08-05T11:54:54.709Z,97577.22
2022-08-05T11:58:08.403Z,97582.09
2022-08-05T12:00:32.655Z,97592.13
2022-08-05T12:03:28.655Z,97594.91
2022-08-05T12:06:05.902Z,97603.94
2022-08-05T12:08:50.627Z,97590.06
2022-08-05T12:11:28.362Z,97571.81
2022-08-05T12:14:11.617Z,97587.75
2022-08-05T12:16:45.510Z,97582.22
2022-08-05T12:20:26.096Z,97571.97
2022-08-05T12:22:13.314Z,97570.13
2022-08-05T12:24:56.130Z,97571.59
2022-08-05T12:27:33.254Z,97570.59
2022-08-05T12:30:05.361Z,97570.16
2022-08-05T12:32:37.132Z,97567.41
2022-08-05T12:35:12.121Z,97569.81
2022-08-05T12:37:49.920Z,97565.75
2022-08-05T12:40:26.852Z,97571.78
2022-08-05T12:43:02.443Z,97571.19
2022-08-05T12:45:42.515Z,97569.47
2022-08-05T12:48:32.239Z,97558.22
2022-08-05T12:52:10.719Z,97565.94
2022-08-05T12:54:16.562Z,97565.09
2022-08-05T12:56:53.002Z,97572.09
2022-08-05T13:00:08.997Z,97579.16
2022-08-05T13:02:30.321Z,97586.97
2022-08-05T13:05:00.915Z,97574.97
2022-08-05T13:07:57.546Z,97571.34
2022-08-05T13:10:21.910Z,97565.78
2022-08-05T13:12:57.962Z,97561.28
2022-08-05T13:15:41.129Z,97556.81
2022-08-05T13:18:12.540Z,97557.03
2022-08-05T13:20:50.975Z,97553.94
2022-08-05T13:23:22.859Z,97564.09
2022-08-05T13:25:59.171Z,97556.34
2022-08-05T13:28:32.348Z,97563.44
2022-08-05T13:31:14.170Z,97560.38
2022-08-05T13:34:21.464Z,97570.38
2022-08-05T13:36:35.980Z,97565.28
2022-08-05T13:40:12.743Z,97557.59
2022-08-05T13:41:58.674Z,97550.59
2022-08-05T13:44:29.550Z,97554.09
2022-08-05T13:47:08.594Z,97545.63
2022-08-05T13:49:46.477Z,97536.97
2022-08-05T13:52:19.291Z,97530.53
2022-08-05T13:55:01.171Z,97528.38
2022-08-05T13:57:50.639Z,97524.88
2022-08-05T14:00:27.711Z,97534.38
2022-08-05T14:03:01.751Z,97525.91
2022-08-05T14:06:24.522Z,97533.72
2022-08-05T14:08:27.829Z,97524.88
2022-08-05T14:11:20.176Z,97525.16
2022-08-05T14:13:55.051Z,97514.06
2022-08-05T14:16:28.008Z,97523.81
2022-08-05T14:19:04.455Z,97523.03
2022-08-05T14:22:10.388Z,97528.19
2022-08-05T14:24:25.182Z,97520.84
2022-08-05T14:27:15.493Z,97513.69
2022-08-05T14:29:46.103Z,97515.16
2022-08-05T14:32:27.828Z,97501.84
2022-08-05T14:35:01.055Z,97518.56
2022-08-05T14:37:48.094Z,97516.44
2022-08-05T14:40:19.219Z,97514.53
2022-08-05T14:42:49.392Z,97513.09
2022-08-05T14:45:19.853Z,97510.44
2022-08-05T14:48:03.829Z,97508.47
2022-08-05T14:50:40.684Z,97521.66
2022-08-05T14:53:12.384Z,97527.09
2022-08-05T14:55:43.905Z,97525.50
2022-08-05T14:58:22.454Z,97523.63
2022-08-05T15:00:59.739Z,97520.22
2022-08-05T15:03:34.000Z,97517.63
2022-08-05T15:06:15.519Z,97518.72
2022-08-05T15:09:01.186Z,97525.97
2022-08-05T15:11:53.088Z,97520.31
2022-08-05T15:14:35.551Z,97526.16
2022-08-05T15:17:45.009Z,97528.63
2022-08-05T15:20:03.464Z,97530.19
2022-08-05T15:22:36.366Z,97540.66
2022-08-05T15:25:14.177Z,97540.44
2022-08-05T15:27:52.498Z,97541.28
2022-08-05T15:30:25.139Z,97547.00
2022-08-05T15:32:55.763Z,97555.34
2022-08-05T15:35:27.045Z,97552.53
2022-08-05T15:38:35.479Z,97563.34
2022-08-05T15:41:21.876Z,97561.84
2022-08-05T15:43:49.487Z,97568.25
2022-08-05T15:46:19.878Z,97564.59
2022-08-05T15:48:52.863Z,97575.81
2022-08-05T15:52:13.348Z,97570.81
2022-08-05T15:54:35.072Z,97578.84
2022-08-05T15:57:08.466Z,97586.84
2022-08-05T15:59:40.005Z,97582.91
2022-08-05T16:02:14.686Z,97583.16
2022-08-05T16:04:52.874Z,97586.38
2022-08-05T16:07:23.199Z,97583.03
2022-08-05T16:09:56.588Z,97585.97
2022-08-05T16:12:27.141Z,97595.03
2022-08-05T16:14:57.340Z,97591.66
2022-08-05T16:17:27.570Z,97593.13
2022-08-05T16:20:04.758Z,97595.84
2022-08-05T16:22:37.942Z,97605.84
2022-08-05T16:25:13.292Z,97603.16
2022-08-05T16:28:00.152Z,97613.66
2022-08-05T16:30:34.541Z,97618.56
2022-08-05T16:33:06.540Z,97622.25
2022-08-05T16:35:42.048Z,97622.53
2022-08-05T16:38:23.693Z,97638.94
2022-08-05T16:41:02.488Z,97639.44
2022-08-05T16:43:56.399Z,97643.44
2022-08-05T16:46:26.813Z,97644.34
2022-08-05T16:48:56.988Z,97659.81
2022-08-05T16:51:30.689Z,97649.22
2022-08-05T16:54:17.104Z,97665.66
2022-08-05T16:56:52.086Z,97660.13
2022-08-05T16:59:22.535Z,97674.63
2022-08-05T17:01:55.507Z,97673.53
2022-08-05T17:04:28.702Z,97672.06
2022-08-05T17:07:01.574Z,97689.00
2022-08-05T17:09:38.913Z,97712.25
2022-08-05T17:12:51.059Z,97722.41
2022-08-05T17:15:19.579Z,97721.28
2022-08-05T17:17:55.052Z,97740.00
2022-08-05T17:20:26.731Z,97754.22
2022-08-05T17:22:57.618Z,97765.69
2022-08-05T17:25:34.204Z,97764.81
2022-08-05T17:28:15.366Z,97783.09
2022-08-05T17:30:50.570Z,97794.66
2022-08-05T17:33:23.317Z,97798.25
2022-08-05T17:36:07.854Z,97816.31
2022-08-05T17:38:40.458Z,97816.34
2022-08-05T17:41:22.662Z,97834.34
2022-08-05T17:44:03.927Z,97836.97
2022-08-05T17:46:34.971Z,97846.09
2022-08-05T17:49:05.273Z,97851.28
2022-08-05T17:51:40.094Z,97859.47
2022-08-05T17:54:11.142Z,97860.09
2022-08-05T17:56:44.707Z,97871.38
2022-08-05T17:59:22.737Z,97888.75
2022-08-05T18:01:54.166Z,97894.88
2022-08-05T18:04:27.989Z,97906.41
2022-08-05T18:07:01.955Z,97932.69
2022-08-05T18:09:59.982Z,97931.78
2022-08-05T18:12:24.517Z,97938.53
2022-08-05T18:14:58.365Z,97933.84
2022-08-05T18:18:01.310Z,97939.78
2022-08-05T18:20:19.179Z,97951.56
2022-08-05T18:22:54.487Z,97954.63
2022-08-05T18:25:25.317Z,97959.13
2022-08-05T18:28:05.265Z,97966.69
2022-08-05T18:30:40.169Z,97973.28
2022-08-05T18:33:13.553Z,97966.88
2022-08-05T18:36:00.526Z,97982.56
2022-08-05T18:38:34.539Z,97993.47
2022-08-05T18:41:57.046Z,97993.28
2022-08-05T18:43:57.791Z,98001.59
2022-08-05T18:46:41.239Z,98010.44
2022-08-05T18:49:30.385Z,98025.66
2022-08-05T18:52:13.457Z,98021.91
2022-08-05T18:54:45.782Z,98031.22
2022-08-05T18:57:18.099Z,98035.66
2022-08-05T19:00:02.426Z,98042.38
2022-08-05T19:02:38.411Z,98050.31
2022-08-05T19:06:12.803Z,98051.44
2022-08-05T19:08:02.784Z,98050.25
2022-08-05T19:10:33.814Z,98051.44
2022-08-05T19:13:12.417Z,98048.75
2022-08-05T19:15:59.090Z,98056.91
2022-08-05T19:18:34.304Z,98064.41
2022-08-05T19:21:04.928Z,98061.56
2022-08-05T19:24:06.960Z,98070.97
2022-08-05T19:26:27.274Z,98077.13
2022-08-05T19:28:57.489Z,98077.34
2022-08-05T19:31:27.645Z,98079.75
2022-08-05T19:34:06.575Z,98082.09
2022-08-05T19:36:37.406Z,98080.94
2022-08-05T19:39:08.617Z,98100.47
2022-08-05T19:42:05.883Z,98100.06
2022-08-05T19:44:29.345Z,98100.44
2022-08-05T19:47:00.290Z,98104.28
2022-08-05T19:49:33.586Z,98106.50
2022-08-05T19:52:09.326Z,98108.78
2022-08-05T19:54:53.994Z,98103.66
2022-08-05T19:57:47.594Z,98107.88
2022-08-05T20:00:15.613Z,98107.19
2022-08-05T20:02:50.957Z,98120.25
2022-08-05T20:05:25.831Z,98113.91
2022-08-05T20:08:13.247Z,98112.06
2022-08-05T20:10:44.850Z,98108.78
2022-08-05T20:13:30.341Z,98121.56
2022-08-05T20:16:11.256Z,98134.22
2022-08-05T20:18:42.464Z,98132.72
2022-08-05T20:21:19.113Z,98143.47
2022-08-05T20:23:53.401Z,98149.34
2022-08-05T20:26:25.385Z,98146.22
2022-08-05T20:29:00.822Z,98144.16
2022-08-05T20:31:42.727Z,98153.69
2022-08-05T20:34:22.581Z,98147.25
2022-08-05T20:36:55.940Z,98141.31
2022-08-05T20:39:26.182Z,98148.63
2022-08-05T20:42:07.875Z,98150.00
2022-08-05T20:44:42.046Z,98162.66
2022-08-05T20:47:14.359Z,98165.59
2022-08-05T20:49:45.211Z,98166.91
2022-08-05T20:52:24.551Z,98175.94
2022-08-05T20:54:59.504Z,98193.66
2022-08-05T20:57:45.550Z,98202.38
2022-08-05T21:00:40.262Z,98224.94
2022-08-05T21:03:09.682Z,98218.75
2022-08-05T21:05:54.268Z,98228.66
2022-08-05T21:08:35.951Z,98230.47
2022-08-05T21:11:15.074Z,98231.03
2022-08-05T21:14:02.952Z,98217.91
2022-08-05T21:16:33.648Z,98205.31
2022-08-05T21:19:06.047Z,98194.41
2022-08-05T21:21:44.241Z,98208.00
2022-08-05T21:24:23.535Z,98205.72
2022-08-05T21:26:58.785Z,98181.78
2022-08-05T21:29:31.905Z,98183.75
2022-08-05T21:32:04.208Z,98182.34
2022-08-05T21:34:35.611Z,98196.34
2022-08-05T21:37:08.204Z,98182.69
2022-08-05T21:39:41.086Z,98181.81
2022-08-05T21:42:40.998Z,98214.72
2022-08-05T21:45:02.579Z,98252.31
2022-08-05T21:47:56.103Z,98262.53
2022-08-05T21:50:24.818Z,98280.44
2022-08-05T21:52:58.598Z,98289.84
2022-08-05T21:56:00.927Z,98313.28
2022-08-05T21:58:32.013Z,98322.75
2022-08-05T22:01:04.671Z,98281.56
2022-08-05T22:03:48.596Z,98270.97
2022-08-05T22:06:35.159Z,98275.66
2022-08-05T22:09:13.805Z,98265.78
2022-08-05T22:11:48.371Z,98270.13
2022-08-05T22:14:35.627Z,98251.88
2022-08-05T22:17:08.994Z,98245.72
2022-08-05T22:20:01.393Z,98254.47
2022-08-05T22:22:31.248Z,98284.56
2022-08-05T22:25:21.327Z,98311.59
2022-08-05T22:28:08.858Z,98344.97
2022-08-05T22:30:56.891Z,98371.22
2022-08-05T22:33:58.071Z,98376.47
2022-08-05T22:36:23.843Z,98378.16
2022-08-05T22:38:55.422Z,98383.19
2022-08-05T22:42:09.345Z,98346.50
2022-08-05T22:44:19.200Z,98301.91
2022-08-05T22:46:49.569Z,98305.03
2022-08-05T22:49:45.991Z,98320.31
2022-08-05T22:52:22.686Z,98328.47
2022-08-05T22:55:00.647Z,98334.75
2022-08-05T22:57:34.097Z,98300.78
2022-08-05T23:00:11.604Z,98306.03
2022-08-05T23:02:48.713Z,98320.75
2022-08-05T23:05:22.163Z,98323.38
2022-08-05T23:07:53.394Z,98313.63
2022-08-05T23:10:24.936Z,98313.38
2022-08-05T23:12:56.795Z,98307.59
2022-08-05T23:15:35.178Z,98313.50
2022-08-05T23:18:11.745Z,98318.44
2022-08-05T23:20:46.227Z,98337.72
2022-08-05T23:23:16.534Z,98344.75
2022-08-05T23:25:52.618Z,98347.31
2022-08-05T23:28:28.713Z,98361.94
2022-08-05T23:31:16.636Z,98350.91
2022-08-05T23:34:04.518Z,98352.69
2022-08-05T23:36:39.587Z,98356.00
2022-08-05T23:39:16.605Z,98354.72
2022-08-05T23:41:48.374Z,98341.66
2022-08-05T23:44:19.756Z,98325.03
2022-08-05T23:46:56.098Z,98337.06
2022-08-05T23:49:36.063Z,98359.66
2022-08-05T23:52:19.894Z,98386.91
2022-08-05T23:54:51.632Z,98369.81
2022-08-05T23:57:21.854Z,98373.63
